Terminal Aerodrome Forecast
Issued by NWS Memphis, TN

Home | Current Version | Previous Version | Text Only | Print | Product List | Glossary On
Versions: 1 2 3 4 5 6 7 8 9 10 11 12 13 14 15 16 17
000
FTUS44 KMEG 050621 CCA
TAFMKL
TAF COR
KMKL 050621Z 0506/0606 00000KT 3SM BR SCT250
      TEMPO 0506/0510 1/2SM FG VV003
     FM051300 11004KT P6SM SCT040
     FM060000 00000KT P6SM SCT250=

USA.gov is the U.S. government's official web portal to all federal, state and local government web resources and services.